sensor_id;sensor_type;location;lat;lon;timestamp;pressure;altitude;pressure_sealevel;temperature;humidity
24486;BME280;13449;49.374;8.584;2022-08-25T00:01:58;100559.56;;;24.00;52.45
24486;BME280;13449;49.374;8.584;2022-08-25T00:04:29;100557.84;;;23.84;52.94
24486;BME280;13449;49.374;8.584;2022-08-25T00:06:59;100548.88;;;23.72;53.32
24486;BME280;13449;49.374;8.584;2022-08-25T00:09:29;100554.44;;;23.72;53.44
24486;BME280;13449;49.374;8.584;2022-08-25T00:11:57;100548.50;;;23.53;53.95
24486;BME280;13449;49.374;8.584;2022-08-25T00:14:31;100552.72;;;23.66;53.39
24486;BME280;13449;49.374;8.584;2022-08-25T00:17:03;100549.41;;;23.74;53.12
24486;BME280;13449;49.374;8.584;2022-08-25T00:19:32;100545.13;;;23.51;54.82
24486;BME280;13449;49.374;8.584;2022-08-25T00:21:59;100558.28;;;23.61;54.08
24486;BME280;13449;49.374;8.584;2022-08-25T00:24:26;100560.00;;;23.72;53.35
24486;BME280;13449;49.374;8.584;2022-08-25T00:26:55;100564.47;;;23.73;53.35
24486;BME280;13449;49.374;8.584;2022-08-25T00:29:25;100552.41;;;23.57;54.32
24486;BME280;13449;49.374;8.584;2022-08-25T00:31:53;100553.88;;;23.75;53.65
24486;BME280;13449;49.374;8.584;2022-08-25T00:34:31;100567.59;;;23.87;53.14
24486;BME280;13449;49.374;8.584;2022-08-25T00:37:00;100566.78;;;23.96;52.98
24486;BME280;13449;49.374;8.584;2022-08-25T00:39:29;100573.19;;;23.97;53.22
24486;BME280;13449;49.374;8.584;2022-08-25T00:41:58;100577.13;;;24.01;52.73
24486;BME280;13449;49.374;8.584;2022-08-25T00:44:27;100564.59;;;24.03;52.99
24486;BME280;13449;49.374;8.584;2022-08-25T00:47:02;100564.31;;;24.05;53.01
24486;BME280;13449;49.374;8.584;2022-08-25T00:49:34;100571.09;;;24.14;52.90
24486;BME280;13449;49.374;8.584;2022-08-25T00:52:11;100571.94;;;24.20;52.91
24486;BME280;13449;49.374;8.584;2022-08-25T00:54:46;100573.91;;;24.24;52.72
24486;BME280;13449;49.374;8.584;2022-08-25T00:57:17;100571.13;;;24.24;52.41
24486;BME280;13449;49.374;8.584;2022-08-25T00:59:59;100573.91;;;24.24;52.64
24486;BME280;13449;49.374;8.584;2022-08-25T01:02:26;100571.09;;;24.14;53.00
24486;BME280;13449;49.374;8.584;2022-08-25T01:04:53;100564.69;;;24.14;53.01
24486;BME280;13449;49.374;8.584;2022-08-25T01:07:20;100569.16;;;24.20;52.95
24486;BME280;13449;49.374;8.584;2022-08-25T01:09:55;100563.53;;;24.15;53.26
24486;BME280;13449;49.374;8.584;2022-08-25T01:12:21;100559.63;;;24.11;53.39
24486;BME280;13449;49.374;8.584;2022-08-25T01:14:55;100564.06;;;24.12;53.40
24486;BME280;13449;49.374;8.584;2022-08-25T01:17:22;100564.91;;;24.12;53.05
24486;BME280;13449;49.374;8.584;2022-08-25T01:19:48;100563.78;;;24.03;53.35
24486;BME280;13449;49.374;8.584;2022-08-25T01:22:23;100560.97;;;24.08;53.34
24486;BME280;13449;49.374;8.584;2022-08-25T01:25:03;100555.13;;;24.04;53.19
24486;BME280;13449;49.374;8.584;2022-08-25T01:27:32;100550.38;;;23.95;53.85
24486;BME280;13449;49.374;8.584;2022-08-25T01:30:01;100550.03;;;23.86;54.27
24486;BME280;13449;49.374;8.584;2022-08-25T01:35:58;100553.09;;;23.80;54.32
24486;BME280;13449;49.374;8.584;2022-08-25T01:42:27;100542.34;;;23.51;55.50
24486;BME280;13449;49.374;8.584;2022-08-25T01:48:44;100546.75;;;23.47;55.55
24486;BME280;13449;49.374;8.584;2022-08-25T01:51:15;100529.59;;;23.19;57.31
24486;BME280;13449;49.374;8.584;2022-08-25T01:53:51;100540.03;;;23.01;57.33
24486;BME280;13449;49.374;8.584;2022-08-25T01:56:17;100537.75;;;22.93;57.63
24486;BME280;13449;49.374;8.584;2022-08-25T01:58:49;100532.06;;;22.78;58.44
24486;BME280;13449;49.374;8.584;2022-08-25T02:01:18;100543.00;;;22.90;58.15
24486;BME280;13449;49.374;8.584;2022-08-25T02:03:50;100543.72;;;22.75;58.86
24486;BME280;13449;49.374;8.584;2022-08-25T02:06:30;100565.78;;;22.87;57.92
24486;BME280;13449;49.374;8.584;2022-08-25T02:09:06;100549.22;;;22.70;58.73
24486;BME280;13449;49.374;8.584;2022-08-25T02:11:37;100553.22;;;22.57;59.49
24486;BME280;13449;49.374;8.584;2022-08-25T02:14:04;100557.59;;;22.48;59.60
24486;BME280;13449;49.374;8.584;2022-08-25T02:16:33;100551.13;;;22.43;59.51
24486;BME280;13449;49.374;8.584;2022-08-25T02:19:09;100545.41;;;22.28;60.13
24486;BME280;13449;49.374;8.584;2022-08-25T02:21:43;100546.72;;;22.20;60.74
24486;BME280;13449;49.374;8.584;2022-08-25T02:24:16;100549.19;;;22.16;60.81
24486;BME280;13449;49.374;8.584;2022-08-25T02:26:46;100548.31;;;22.11;61.21
24486;BME280;13449;49.374;8.584;2022-08-25T02:29:19;100535.22;;;21.90;62.12
24486;BME280;13449;49.374;8.584;2022-08-25T02:31:45;100541.59;;;21.85;62.39
24486;BME280;13449;49.374;8.584;2022-08-25T02:34:12;100547.69;;;21.87;61.84
24486;BME280;13449;49.374;8.584;2022-08-25T02:36:41;100549.00;;;21.80;62.12
24486;BME280;13449;49.374;8.584;2022-08-25T02:39:09;100552.69;;;21.85;62.61
24486;BME280;13449;49.374;8.584;2022-08-25T02:41:36;100544.22;;;21.75;62.81
24486;BME280;13449;49.374;8.584;2022-08-25T02:44:12;100538.22;;;21.61;63.50
24486;BME280;13449;49.374;8.584;2022-08-25T02:46:38;100547.81;;;21.54;63.72
24486;BME280;13449;49.374;8.584;2022-08-25T02:49:12;100535.75;;;21.27;64.95
24486;BME280;13449;49.374;8.584;2022-08-25T02:51:38;100533.91;;;21.32;65.10
24486;BME280;13449;49.374;8.584;2022-08-25T02:54:05;100542.25;;;21.32;64.84
24486;BME280;13449;49.374;8.584;2022-08-25T02:56:34;100549.81;;;21.37;64.83
24486;BME280;13449;49.374;8.584;2022-08-25T02:59:01;100540.22;;;21.28;66.06
24486;BME280;13449;49.374;8.584;2022-08-25T03:01:31;100530.00;;;21.11;66.00
24486;BME280;13449;49.374;8.584;2022-08-25T03:04:04;100538.78;;;21.08;66.07
24486;BME280;13449;49.374;8.584;2022-08-25T03:06:32;100536.28;;;21.07;66.01
24486;BME280;13449;49.374;8.584;2022-08-25T03:09:05;100536.03;;;21.25;66.42
24486;BME280;13449;49.374;8.584;2022-08-25T03:11:36;100536.59;;;21.27;66.45
24486;BME280;13449;49.374;8.584;2022-08-25T03:14:12;100549.00;;;21.58;64.23
24486;BME280;13449;49.374;8.584;2022-08-25T03:16:38;100537.78;;;21.69;64.02
24486;BME280;13449;49.374;8.584;2022-08-25T03:19:14;100537.97;;;21.63;64.27
24486;BME280;13449;49.374;8.584;2022-08-25T03:21:48;100537.13;;;21.84;63.87
24486;BME280;13449;49.374;8.584;2022-08-25T03:24:29;100538.72;;;21.80;63.67
24486;BME280;13449;49.374;8.584;2022-08-25T03:26:55;100537.88;;;21.80;63.21
24486;BME280;13449;49.374;8.584;2022-08-25T03:29:27;100549.28;;;21.78;62.63
24486;BME280;13449;49.374;8.584;2022-08-25T03:31:55;100545.13;;;21.81;63.41
24486;BME280;13449;49.374;8.584;2022-08-25T03:34:27;100542.59;;;21.79;63.81
24486;BME280;13449;49.374;8.584;2022-08-25T03:36:55;100536.47;;;21.77;63.82
24486;BME280;13449;49.374;8.584;2022-08-25T03:39:23;100541.38;;;21.70;63.88
24486;BME280;13449;49.374;8.584;2022-08-25T03:41:51;100538.78;;;21.63;64.38
24486;BME280;13449;49.374;8.584;2022-08-25T03:44:20;100528.59;;;21.47;65.92
24486;BME280;13449;49.374;8.584;2022-08-25T03:46:49;100520.94;;;21.38;66.35
24486;BME280;13449;49.374;8.584;2022-08-25T03:49:20;100528.81;;;21.24;66.88
24486;BME280;13449;49.374;8.584;2022-08-25T03:51:51;100522.94;;;21.20;67.24
24486;BME280;13449;49.374;8.584;2022-08-25T03:54:22;100523.78;;;21.21;66.77
24486;BME280;13449;49.374;8.584;2022-08-25T03:56:50;100516.88;;;21.07;66.94
24486;BME280;13449;49.374;8.584;2022-08-25T03:59:16;100507.81;;;20.95;67.32
24486;BME280;13449;49.374;8.584;2022-08-25T04:01:46;100506.53;;;21.02;67.27
24486;BME280;13449;49.374;8.584;2022-08-25T04:04:21;100519.66;;;20.90;67.47
24486;BME280;13449;49.374;8.584;2022-08-25T04:06:48;100521.00;;;20.71;68.39
24486;BME280;13449;49.374;8.584;2022-08-25T04:09:14;100516.19;;;20.66;68.88
24486;BME280;13449;49.374;8.584;2022-08-25T04:11:40;100522.59;;;20.67;68.78
24486;BME280;13449;49.374;8.584;2022-08-25T04:14:08;100517.44;;;20.59;69.06
24486;BME280;13449;49.374;8.584;2022-08-25T04:16:39;100524.50;;;20.50;69.73
24486;BME280;13449;49.374;8.584;2022-08-25T04:19:10;100529.56;;;20.53;69.70
24486;BME280;13449;49.374;8.584;2022-08-25T04:21:47;100530.28;;;20.48;69.69
24486;BME280;13449;49.374;8.584;2022-08-25T04:24:28;100536.69;;;20.49;69.84
24486;BME280;13449;49.374;8.584;2022-08-25T04:26:55;100532.91;;;20.26;71.66
24486;BME280;13449;49.374;8.584;2022-08-25T04:29:24;100542.56;;;20.36;71.00
24486;BME280;13449;49.374;8.584;2022-08-25T04:31:53;100547.91;;;20.42;70.94
24486;BME280;13449;49.374;8.584;2022-08-25T04:34:27;100550.75;;;20.31;71.23
24486;BME280;13449;49.374;8.584;2022-08-25T04:37:00;100539.81;;;20.24;71.08
24486;BME280;13449;49.374;8.584;2022-08-25T04:39:34;100552.19;;;20.21;71.32
24486;BME280;13449;49.374;8.584;2022-08-25T04:42:01;100542.13;;;20.15;71.65
24486;BME280;13449;49.374;8.584;2022-08-25T04:44:28;100547.34;;;20.00;72.40
24486;BME280;13449;49.374;8.584;2022-08-25T04:47:01;100544.47;;;19.95;72.69
24486;BME280;13449;49.374;8.584;2022-08-25T04:49:27;100546.16;;;19.96;71.87
24486;BME280;13449;49.374;8.584;2022-08-25T04:51:54;100544.28;;;19.85;73.19
24486;BME280;13449;49.374;8.584;2022-08-25T04:54:29;100541.00;;;19.88;72.78
24486;BME280;13449;49.374;8.584;2022-08-25T04:57:02;100541.00;;;19.88;73.18
24486;BME280;13449;49.374;8.584;2022-08-25T04:59:37;100542.34;;;19.86;73.14
24486;BME280;13449;49.374;8.584;2022-08-25T05:02:06;100548.28;;;19.66;75.54
24486;BME280;13449;49.374;8.584;2022-08-25T05:04:34;100541.69;;;19.67;75.39
24486;BME280;13449;49.374;8.584;2022-08-25T05:07:02;100542.75;;;19.66;75.14
24486;BME280;13449;49.374;8.584;2022-08-25T05:09:31;100546.00;;;19.63;76.18
24486;BME280;13449;49.374;8.584;2022-08-25T05:12:06;100542.75;;;19.66;75.42
24486;BME280;13449;49.374;8.584;2022-08-25T05:14:32;100543.00;;;19.64;75.84
24486;BME280;13449;49.374;8.584;2022-08-25T05:16:59;100537.84;;;19.68;76.36
24486;BME280;13449;49.374;8.584;2022-08-25T05:19:29;100534.66;;;19.76;74.94
24486;BME280;13449;49.374;8.584;2022-08-25T05:21:56;100534.06;;;19.74;76.93
24486;BME280;13449;49.374;8.584;2022-08-25T05:24:23;100542.34;;;19.86;76.39
24486;BME280;13449;49.374;8.584;2022-08-25T05:26:59;100539.94;;;19.89;75.96
24486;BME280;13449;49.374;8.584;2022-08-25T05:29:29;100532.31;;;19.96;76.30
24486;BME280;13449;49.374;8.584;2022-08-25T05:31:57;100530.97;;;19.99;75.77
24486;BME280;13449;49.374;8.584;2022-08-25T05:34:24;100525.91;;;20.07;76.07
24486;BME280;13449;49.374;8.584;2022-08-25T05:36:53;100533.69;;;20.10;75.00
24486;BME280;13449;49.374;8.584;2022-08-25T05:39:19;100529.69;;;20.18;74.27
24486;BME280;13449;49.374;8.584;2022-08-25T05:41:46;100540.13;;;20.27;74.55
24486;BME280;13449;49.374;8.584;2022-08-25T05:44:15;100523.63;;;20.33;74.01
24486;BME280;13449;49.374;8.584;2022-08-25T05:46:49;100533.22;;;20.42;72.76
24486;BME280;13449;49.374;8.584;2022-08-25T05:49:16;100531.25;;;20.54;74.21
24486;BME280;13449;49.374;8.584;2022-08-25T05:51:43;100544.41;;;20.63;71.27
24486;BME280;13449;49.374;8.584;2022-08-25T05:54:21;100544.34;;;20.75;72.18
24486;BME280;13449;49.374;8.584;2022-08-25T05:56:48;100544.78;;;20.84;70.90
24486;BME280;13449;49.374;8.584;2022-08-25T05:59:14;100540.22;;;20.94;72.29
24486;BME280;13449;49.374;8.584;2022-08-25T06:01:41;100545.09;;;21.04;69.67
24486;BME280;13449;49.374;8.584;2022-08-25T06:04:29;100532.84;;;21.16;69.84
24486;BME280;13449;49.374;8.584;2022-08-25T06:06:58;100536.41;;;21.34;70.76
24486;BME280;13449;49.374;8.584;2022-08-25T06:09:27;100545.41;;;21.41;67.78
24486;BME280;13449;49.374;8.584;2022-08-25T06:11:56;100534.28;;;21.57;69.52
24486;BME280;13449;49.374;8.584;2022-08-25T06:14:23;100532.22;;;21.69;69.09
24486;BME280;13449;49.374;8.584;2022-08-25T06:16:50;100540.94;;;21.78;67.50
24486;BME280;13449;49.374;8.584;2022-08-25T06:19:17;100531.47;;;21.96;68.88
24486;BME280;13449;49.374;8.584;2022-08-25T06:21:46;100544.63;;;22.05;67.14
24486;BME280;13449;49.374;8.584;2022-08-25T06:24:13;100543.94;;;22.20;66.98
24486;BME280;13449;49.374;8.584;2022-08-25T06:26:45;100538.84;;;22.34;66.70
24486;BME280;13449;49.374;8.584;2022-08-25T06:29:12;100543.19;;;22.51;67.50
24486;BME280;13449;49.374;8.584;2022-08-25T06:31:42;100563.88;;;22.65;64.64
24486;BME280;13449;49.374;8.584;2022-08-25T06:34:12;100554.63;;;22.82;64.52
24486;BME280;13449;49.374;8.584;2022-08-25T06:36:39;100536.97;;;23.03;65.80
24486;BME280;13449;49.374;8.584;2022-08-25T06:39:06;100546.03;;;23.20;64.80
24486;BME280;13449;49.374;8.584;2022-08-25T06:41:39;100535.84;;;23.41;65.09
24486;BME280;13449;49.374;8.584;2022-08-25T06:44:08;100536.50;;;23.53;63.92
24486;BME280;13449;49.374;8.584;2022-08-25T06:46:36;100539.94;;;23.70;63.62
24486;BME280;13449;49.374;8.584;2022-08-25T06:49:05;100544.22;;;23.88;62.39
24486;BME280;13449;49.374;8.584;2022-08-25T06:51:32;100572.66;;;24.00;59.70
24486;BME280;13449;49.374;8.584;2022-08-25T06:54:02;100564.66;;;24.19;59.27
24486;BME280;13449;49.374;8.584;2022-08-25T06:56:28;100554.75;;;24.48;59.50
24486;BME280;13449;49.374;8.584;2022-08-25T06:58:55;100555.84;;;24.52;59.74
24486;BME280;13449;49.374;8.584;2022-08-25T07:01:24;100548.31;;;24.58;59.56
24486;BME280;13449;49.374;8.584;2022-08-25T07:03:57;100559.50;;;24.63;57.98
24486;BME280;13449;49.374;8.584;2022-08-25T07:06:27;100533.59;;;24.87;59.68
24486;BME280;13449;49.374;8.584;2022-08-25T07:08:54;100558.16;;;25.00;57.35
24486;BME280;13449;49.374;8.584;2022-08-25T07:11:21;100554.78;;;25.09;56.25
24486;BME280;13449;49.374;8.584;2022-08-25T07:13:48;100534.69;;;25.27;57.66
24486;BME280;13449;49.374;8.584;2022-08-25T07:16:17;100550.28;;;25.48;56.58
24486;BME280;13449;49.374;8.584;2022-08-25T07:18:45;100553.09;;;25.38;56.09
24486;BME280;13449;49.374;8.584;2022-08-25T07:21:19;100550.00;;;25.55;55.93
24486;BME280;13449;49.374;8.584;2022-08-25T07:24:05;100549.16;;;25.64;55.57
24486;BME280;13449;49.374;8.584;2022-08-25T07:26:32;100555.81;;;25.73;56.46
24486;BME280;13449;49.374;8.584;2022-08-25T07:29:08;100549.91;;;25.90;55.50
24486;BME280;13449;49.374;8.584;2022-08-25T07:31:38;100565.28;;;25.77;54.10
24486;BME280;13449;49.374;8.584;2022-08-25T07:34:07;100559.13;;;25.85;54.31
24486;BME280;13449;49.374;8.584;2022-08-25T07:37:00;100555.44;;;26.00;53.76
24486;BME280;13449;49.374;8.584;2022-08-25T07:39:34;100554.56;;;26.05;54.59
24486;BME280;13449;49.374;8.584;2022-08-25T07:42:01;100537.69;;;26.30;54.65
24486;BME280;13449;49.374;8.584;2022-08-25T07:44:27;100546.09;;;26.30;54.48
24486;BME280;13449;49.374;8.584;2022-08-25T07:46:54;100558.44;;;26.24;53.13
24486;BME280;13449;49.374;8.584;2022-08-25T07:49:22;100555.06;;;26.22;53.24
24486;BME280;13449;49.374;8.584;2022-08-25T07:51:51;100547.41;;;26.42;54.11
24486;BME280;13449;49.374;8.584;2022-08-25T07:54:32;100559.44;;;26.43;53.22
24486;BME280;13449;49.374;8.584;2022-08-25T07:57:05;100565.28;;;26.47;53.27
24486;BME280;13449;49.374;8.584;2022-08-25T07:59:32;100561.66;;;26.46;52.01
24486;BME280;13449;49.374;8.584;2022-08-25T08:02:09;100569.44;;;26.54;52.30
24486;BME280;13449;49.374;8.584;2022-08-25T08:04:51;100577.66;;;26.79;51.36
24486;BME280;13449;49.374;8.584;2022-08-25T08:07:20;100554.13;;;26.85;52.81
24486;BME280;13449;49.374;8.584;2022-08-25T08:10:08;100581.00;;;26.86;50.95
24486;BME280;13449;49.374;8.584;2022-08-25T08:12:55;100576.44;;;26.96;51.08
24486;BME280;13449;49.374;8.584;2022-08-25T08:15:22;100581.28;;;26.80;50.92
24486;BME280;13449;49.374;8.584;2022-08-25T08:17:48;100567.97;;;27.06;51.84
24486;BME280;13449;49.374;8.584;2022-08-25T08:20:15;100594.91;;;26.97;50.02
24486;BME280;13449;49.374;8.584;2022-08-25T08:22:56;100590.59;;;27.09;50.13
24486;BME280;13449;49.374;8.584;2022-08-25T08:25:29;100580.78;;;27.12;50.41
24486;BME280;13449;49.374;8.584;2022-08-25T08:27:56;100588.06;;;27.13;50.48
24486;BME280;13449;49.374;8.584;2022-08-25T08:30:25;100600.03;;;27.18;49.54
24486;BME280;13449;49.374;8.584;2022-08-25T08:32:53;100597.22;;;27.18;50.27
24486;BME280;13449;49.374;8.584;2022-08-25T08:35:42;100592.09;;;27.30;50.48
24486;BME280;13449;49.374;8.584;2022-08-25T08:38:08;100596.00;;;27.29;49.53
24486;BME280;13449;49.374;8.584;2022-08-25T08:40:49;100589.44;;;27.44;49.39
24486;BME280;13449;49.374;8.584;2022-08-25T08:43:37;100599.38;;;27.31;49.11
24486;BME280;13449;49.374;8.584;2022-08-25T08:46:06;100587.16;;;27.51;49.40
24486;BME280;13449;49.374;8.584;2022-08-25T08:53:48;100582.72;;;27.74;49.17
24486;BME280;13449;49.374;8.584;2022-08-25T08:56:29;100590.81;;;27.75;48.52
24486;BME280;13449;49.374;8.584;2022-08-25T08:59:00;100599.31;;;27.70;47.67
24486;BME280;13449;49.374;8.584;2022-08-25T09:04:17;100596.97;;;27.77;47.69
24486;BME280;13449;49.374;8.584;2022-08-25T09:06:49;100593.69;;;27.70;47.82
24486;BME280;13449;49.374;8.584;2022-08-25T09:09:25;100581.22;;;27.58;47.85
24486;BME280;13449;49.374;8.584;2022-08-25T09:34:02;100606.78;;;28.46;44.94
24486;BME280;13449;49.374;8.584;2022-08-25T09:36:30;100597.91;;;28.39;45.72
24486;BME280;13449;49.374;8.584;2022-08-25T09:39:06;100579.56;;;28.47;46.52
24486;BME280;13449;49.374;8.584;2022-08-25T09:41:45;100567.44;;;28.51;45.68
24486;BME280;13449;49.374;8.584;2022-08-25T09:44:40;100573.28;;;28.55;45.38
24486;BME280;13449;49.374;8.584;2022-08-25T09:49:57;100598.53;;;28.55;43.72
24486;BME280;13449;49.374;8.584;2022-08-25T09:52:43;100573.00;;;28.75;44.82
24486;BME280;13449;49.374;8.584;2022-08-25T09:57:53;100568.00;;;28.91;44.25
24486;BME280;13449;49.374;8.584;2022-08-25T10:03:12;100573.84;;;28.75;44.07
24486;BME280;13449;49.374;8.584;2022-08-25T10:11:38;100551.72;;;28.88;44.47
24486;BME280;13449;49.374;8.584;2022-08-25T10:14:28;100548.84;;;28.93;43.00
24486;BME280;13449;49.374;8.584;2022-08-25T10:22:44;100554.03;;;29.18;43.04
24486;BME280;13449;49.374;8.584;2022-08-25T10:25:27;100566.31;;;29.22;42.66
24486;BME280;13449;49.374;8.584;2022-08-25T10:28:22;100574.19;;;29.39;41.07
24486;BME280;13449;49.374;8.584;2022-08-25T10:31:14;100571.28;;;29.44;42.27
24486;BME280;13449;49.374;8.584;2022-08-25T10:39:42;100553.16;;;29.36;42.04
24486;BME280;13449;49.374;8.584;2022-08-25T10:42:39;100528.41;;;29.38;43.19
24486;BME280;13449;49.374;8.584;2022-08-25T10:56:37;100529.75;;;29.41;41.96
24486;BME280;13449;49.374;8.584;2022-08-25T10:59:29;100513.19;;;28.93;43.24
24486;BME280;13449;49.374;8.584;2022-08-25T11:05:26;100487.38;;;28.91;43.49
24486;BME280;13449;49.374;8.584;2022-08-25T11:08:28;100491.78;;;29.11;42.40
24486;BME280;13449;49.374;8.584;2022-08-25T11:11:00;100478.03;;;29.28;42.88
24486;BME280;13449;49.374;8.584;2022-08-25T11:13:45;100496.47;;;29.15;41.89
24486;BME280;13449;49.374;8.584;2022-08-25T11:16:20;100465.59;;;29.15;43.28
24486;BME280;13449;49.374;8.584;2022-08-25T11:18:52;100476.88;;;29.29;43.05
24486;BME280;13449;49.374;8.584;2022-08-25T11:24:35;100510.13;;;29.54;40.38
24486;BME280;13449;49.374;8.584;2022-08-25T11:27:12;100514.78;;;29.59;40.69
24486;BME280;13449;49.374;8.584;2022-08-25T11:29:48;100508.75;;;29.65;41.77
24486;BME280;13449;49.374;8.584;2022-08-25T11:32:19;100508.75;;;29.65;40.01
24486;BME280;13449;49.374;8.584;2022-08-25T11:34:48;100518.44;;;29.73;39.58
24486;BME280;13449;49.374;8.584;2022-08-25T11:37:23;100511.66;;;29.60;40.03
24486;BME280;13449;49.374;8.584;2022-08-25T11:50:36;100503.72;;;29.03;40.22
24486;BME280;13449;49.374;8.584;2022-08-25T11:53:34;100498.31;;;28.93;39.99
24486;BME280;13449;49.374;8.584;2022-08-25T11:56:11;100469.41;;;29.06;41.56
24486;BME280;13449;49.374;8.584;2022-08-25T11:58:52;100482.94;;;29.04;40.59
24486;BME280;13449;49.374;8.584;2022-08-25T12:09:25;100477.94;;;29.01;40.44
24486;BME280;13449;49.374;8.584;2022-08-25T12:11:54;100470.00;;;28.89;40.92
24486;BME280;13449;49.374;8.584;2022-08-25T12:25:00;100478.88;;;29.42;39.38
24486;BME280;13449;49.374;8.584;2022-08-25T12:30:20;100489.25;;;29.83;39.04
24486;BME280;13449;49.374;8.584;2022-08-25T12:35:48;100481.03;;;30.13;38.13
24486;BME280;13449;49.374;8.584;2022-08-25T12:41:11;100482.94;;;29.91;36.78
24486;BME280;13449;49.374;8.584;2022-08-25T12:43:43;100467.00;;;29.72;38.96
24486;BME280;13449;49.374;8.584;2022-08-25T12:49:32;100468.00;;;30.04;37.77
24486;BME280;13449;49.374;8.584;2022-08-25T12:52:27;100484.72;;;30.22;37.11
24486;BME280;13449;49.374;8.584;2022-08-25T12:55:02;100478.56;;;30.34;36.66
24486;BME280;13449;49.374;8.584;2022-08-25T12:57:36;100447.59;;;30.34;38.42
24486;BME280;13449;49.374;8.584;2022-08-25T13:00:26;100478.16;;;30.27;35.52
24486;BME280;13449;49.374;8.584;2022-08-25T13:03:25;100464.19;;;30.22;36.35
24486;BME280;13449;49.374;8.584;2022-08-25T13:06:30;100449.28;;;30.35;36.31
24486;BME280;13449;49.374;8.584;2022-08-25T13:14:37;100440.59;;;30.45;36.40
24486;BME280;13449;49.374;8.584;2022-08-25T13:17:05;100419.34;;;30.39;37.60
24486;BME280;13449;49.374;8.584;2022-08-25T13:19:37;100419.72;;;30.24;36.11
24486;BME280;13449;49.374;8.584;2022-08-25T13:22:32;100423.22;;;30.43;36.00
24486;BME280;13449;49.374;8.584;2022-08-25T13:25:05;100411.78;;;30.26;36.94
24486;BME280;13449;49.374;8.584;2022-08-25T13:27:34;100396.44;;;30.32;37.64
24486;BME280;13449;49.374;8.584;2022-08-25T13:30:21;100387.81;;;30.29;37.64
24486;BME280;13449;49.374;8.584;2022-08-25T13:32:48;100394.50;;;30.19;37.47
24486;BME280;13449;49.374;8.584;2022-08-25T13:35:30;100389.78;;;30.06;36.60
24486;BME280;13449;49.374;8.584;2022-08-25T13:38:15;100396.28;;;30.15;36.18
24486;BME280;13449;49.374;8.584;2022-08-25T13:40:49;100393.47;;;30.37;36.00
24486;BME280;13449;49.374;8.584;2022-08-25T13:43:15;100406.06;;;30.53;35.23
24486;BME280;13449;49.374;8.584;2022-08-25T13:45:44;100402.34;;;30.66;35.53
24486;BME280;13449;49.374;8.584;2022-08-25T13:48:13;100407.81;;;30.72;35.04
24486;BME280;13449;49.374;8.584;2022-08-25T13:51:06;100387.34;;;30.80;34.52
24486;BME280;13449;49.374;8.584;2022-08-25T13:53:36;100388.06;;;30.94;34.12
24486;BME280;13449;49.374;8.584;2022-08-25T13:56:02;100330.34;;;31.13;37.33
24486;BME280;13449;49.374;8.584;2022-08-25T13:58:34;100335.50;;;31.20;35.62
24486;BME280;13449;49.374;8.584;2022-08-25T14:04:31;100336.53;;;30.93;35.43
24486;BME280;13449;49.374;8.584;2022-08-25T14:09:58;100334.13;;;31.00;33.28
24486;BME280;13449;49.374;8.584;2022-08-25T14:12:38;100317.44;;;30.82;34.47
24486;BME280;13449;49.374;8.584;2022-08-25T14:17:34;100306.91;;;30.96;34.23
24486;BME280;13449;49.374;8.584;2022-08-25T14:20:23;100293.47;;;30.93;35.35
24486;BME280;13449;49.374;8.584;2022-08-25T14:25:35;100298.88;;;30.81;34.59
24486;BME280;13449;49.374;8.584;2022-08-25T14:28:12;100294.69;;;30.69;34.28
24486;BME280;13449;49.374;8.584;2022-08-25T14:30:43;100291.19;;;30.64;34.88
24486;BME280;13449;49.374;8.584;2022-08-25T14:33:13;100281.09;;;30.72;34.07
24486;BME280;13449;49.374;8.584;2022-08-25T14:35:42;100297.75;;;30.82;33.83
24486;BME280;13449;49.374;8.584;2022-08-25T14:38:10;100285.34;;;30.91;34.00
24486;BME280;13449;49.374;8.584;2022-08-25T14:40:37;100278.72;;;30.96;34.53
24486;BME280;13449;49.374;8.584;2022-08-25T14:43:06;100266.84;;;30.99;34.29
24486;BME280;13449;49.374;8.584;2022-08-25T14:45:37;100255.91;;;31.06;34.85
24486;BME280;13449;49.374;8.584;2022-08-25T14:48:22;100273.16;;;31.13;33.38
24486;BME280;13449;49.374;8.584;2022-08-25T14:50:51;100262.75;;;31.22;34.12
24486;BME280;13449;49.374;8.584;2022-08-25T14:53:25;100269.84;;;31.20;33.49
24486;BME280;13449;49.374;8.584;2022-08-25T14:55:53;100260.22;;;31.12;33.10
24486;BME280;13449;49.374;8.584;2022-08-25T14:58:38;100254.59;;;31.12;33.54
24486;BME280;13449;49.374;8.584;2022-08-25T15:01:21;100246.31;;;31.07;33.95
24486;BME280;13449;49.374;8.584;2022-08-25T15:04:15;100243.81;;;31.05;33.66
24486;BME280;13449;49.374;8.584;2022-08-25T15:06:43;100241.28;;;30.95;33.37
24486;BME280;13449;49.374;8.584;2022-08-25T15:09:17;100241.09;;;30.92;33.54
24486;BME280;13449;49.374;8.584;2022-08-25T15:11:51;100238.28;;;30.92;33.42
24486;BME280;13449;49.374;8.584;2022-08-25T15:14:28;100218.72;;;30.87;34.17
24486;BME280;13449;49.374;8.584;2022-08-25T15:16:59;100238.59;;;30.82;33.22
24486;BME280;13449;49.374;8.584;2022-08-25T15:19:34;100229.16;;;30.86;33.09
24486;BME280;13449;49.374;8.584;2022-08-25T15:22:00;100224.34;;;30.87;33.90
24486;BME280;13449;49.374;8.584;2022-08-25T15:24:27;100224.50;;;30.90;33.69
24486;BME280;13449;49.374;8.584;2022-08-25T15:26:56;100219.72;;;30.91;33.80
24486;BME280;13449;49.374;8.584;2022-08-25T15:29:25;100219.72;;;30.91;33.95
24486;BME280;13449;49.374;8.584;2022-08-25T15:31:59;100218.72;;;30.87;33.30
24486;BME280;13449;49.374;8.584;2022-08-25T15:34:28;100207.63;;;30.82;33.46
24486;BME280;13449;49.374;8.584;2022-08-25T15:37:04;100193.53;;;30.82;33.95
24486;BME280;13449;49.374;8.584;2022-08-25T15:39:34;100182.75;;;30.84;34.50
24486;BME280;13449;49.374;8.584;2022-08-25T15:42:01;100197.69;;;30.84;33.79